Villeneuve d'Ascq (59) - Parcours2

Date : 10/09/2016
Distance : 2,300 km

Place Nom Licence Catégorie Club Temps min/km CN à J-60 Points Différence Nouveau CN
1 LOTERIE Laurine 7045 D21 5907NO 0:16:54 7'20 5347 5474 +127 5381
2 LEPOUTRE Mélanie 4836 D21 5907NO 0:16:56 7'21 5166 5463 +297 6046
3 DESRUMAUX Marie 14227 D35 5906NO 0:17:30 7'36 5681 5286 -395 5399
4 MERCIER Agnès 23079 D21 5907NO 0:17:35 7'38 5560 5261 -299 5654
5 DESRUMAUX Celine 15795 D40 5906NO 0:17:45 7'43 5072 5212 +140 5149
6 FLORENT Roxane 26927 D21 5907NO 0:19:28 8'27 5281 4752 -529 5491
7 MOULIERE M-Helene 2893 D40 0207PI 0:19:57 8'40 3581 4637 +1056 4780
8 SANCHEZ Marlene 15247 D35 6208NO 0:19:59 8'41 4654 4629 -25 4672
9 KIRILOV Aurélie 20629 D35 5906NO 0:20:41 8'59 4829 4472 -357 4769
10 LEMAIRE Cecilia 8952 D21 5907NO 0:20:52 9'04 5613 4433 -1180 5656
11 TEYSSEDRE Marie 26727 D21 5907NO 0:21:38 9'24 4106 4276 +170 4454
12 DESSAILLY Aurélie 26339 D40 5909NO 0:22:01 9'34 4400 4202 -198 4409
13 MOULIERE Camille 2892 D40 0207PI 0:22:26 9'45 4936 4124 -812 5109
14 GERBEAUX Emmanuelle 26838 D21 6205NO 0:23:29 10'12 4917 3939 -978 4793
15 ARROQUI Mathilde 23425 D21 5909NO 0:23:54 10'23 3583 3870 +287 3646
16 LOTERIE Murielle 7044 D45 5907NO 0:24:15 10'32 3975 3815 -160 3906
17 KACZMAREK Apolline 29635 D20 5907NO 0:24:27 10'37 2957 3783 +826 3179
18 DELCUSE Patricia 29299 D40 6205NO 0:24:29 10'38 3018 3778 +760 3269
19 CAYLA Aurélie 23650 D21 5906NO 0:26:23 11'28 0 3506 0
20 VANDOMME Elodie 23560 D35 6208NO 0:26:40 11'35 2682 3469 +787 2899
21 ARROQUI Anne-sophie 23424 D45 5909NO 0:26:42 11'36 3284 3465 +181 3430
22 DIMPRE Aurelie 32283 D35 5906NO 0:27:55 12'08 2052 3314 +1262 2555
23 RYBARCZYK Emmanuelle 31442 D21 6203NO 0:28:17 12'17 3204 3271 +67 3384
24 DUBREUCQ Perrine 25471 D21 5906NO 0:30:03 13'03 2646 3078 +432 2950
25 PECQUEUR Sylvie 20425 D50 5906NO 0:30:11 13'07 3121 3065 -56 3198
26 HAGARD Virginie 7048 D35 5907NO 0:30:12 13'07 3518 3063 -455 3298
27 ROLIN Charlotte 23947 D40 6208NO 0:31:33 13'43 3744 2932 -812 3673
28 BAUD Sandrine 27612 D40 6203NO 0:32:16 14'01 2793 2867 +74 2828
29 SENCE Marie-Pierre 29897 D40 5906NO 0:32:41 14'12 2663 2830 +167 3000
30 PRINS Sandrine 21461 D35 6208NO 0:32:44 14'13 1142 2826 +1684 1165
31 JASKINA Catherine 28714 D55 6203NO 0:33:49 14'42 2099 2735 +636 2501
32 LECOYER Annick 2885 D65 0207PI 0:33:51 14'43 3125 2733 -392 3030
33 JACQUEMART Marina 28528 D21 5909NO 0:34:20 14'55 2431 2694 +263 2578
34 SOLTYSIAK Séverine 30320 D45 5906NO 0:34:47 15'07 2659 0
35 THERY Sophie 27606 D40 6203NO 0:35:02 15'13 2282 2640 +358 2332
36 BOULANGER Isabelle 10639 D55 5907NO 0:37:01 16'05 3246 2499 -747 2819
37 MOULIERE M-Bernadette 2888 D70 0207PI 0:37:45 16'24 2954 2450 -504 2906
38 POULAIN Odile 1948 D55 5909NO 0:43:40 18'59 1569 2118 +549 2010
39 DOOSE Capucine 32368 D21 5907NO 0:45:56 19'58 2268 2014 -254 2309
40 CHOPIN Juliette 29940 D40 6203NO 0:46:23 20'10 781 1994 +1213 1582
41 DEVIENNE Virginie 30570 D40 5906NO 0:50:48 22'05 1715 1821 +106 1907
42 DELANNOY Aurore 21271 D40 6208NO 0:53:28 23'14 1118 1730 +612 1458
43 LUDEWIG-JAMES Carol 15894 D75 5907NO 0:54:05 23'30 1460 1710 +250 1624
PRUVOST Virginie 25881 D45 6208NO pm None 2923 0 2991